sensor_id;sensor_type;location;lat;lon;timestamp;temperature;humidity
8313;DHT22;4194;43.408;24.626;2023-06-26T00:02:21;20.30;99.90
8313;DHT22;4194;43.408;24.626;2023-06-26T00:04:47;20.30;99.90
8313;DHT22;4194;43.408;24.626;2023-06-26T00:07:12;20.20;99.90
8313;DHT22;4194;43.408;24.626;2023-06-26T00:09:38;20.20;99.90
8313;DHT22;4194;43.408;24.626;2023-06-26T00:12:04;20.40;99.90
8313;DHT22;4194;43.408;24.626;2023-06-26T00:14:30;20.30;99.90
8313;DHT22;4194;43.408;24.626;2023-06-26T00:16:55;20.20;99.90
8313;DHT22;4194;43.408;24.626;2023-06-26T00:19:21;20.30;99.90
8313;DHT22;4194;43.408;24.626;2023-06-26T00:21:47;20.40;99.90
8313;DHT22;4194;43.408;24.626;2023-06-26T00:24:17;20.20;99.90
8313;DHT22;4194;43.408;24.626;2023-06-26T00:26:45;20.30;99.90
8313;DHT22;4194;43.408;24.626;2023-06-26T00:29:11;20.00;99.90
8313;DHT22;4194;43.408;24.626;2023-06-26T00:31:37;20.30;99.90
8313;DHT22;4194;43.408;24.626;2023-06-26T00:34:03;20.30;99.90
8313;DHT22;4194;43.408;24.626;2023-06-26T00:36:29;20.30;99.90
8313;DHT22;4194;43.408;24.626;2023-06-26T00:38:54;20.40;99.90
8313;DHT22;4194;43.408;24.626;2023-06-26T00:41:20;20.40;99.90
8313;DHT22;4194;43.408;24.626;2023-06-26T00:43:46;20.40;99.90
8313;DHT22;4194;43.408;24.626;2023-06-26T00:46:15;20.50;99.90
8313;DHT22;4194;43.408;24.626;2023-06-26T00:48:42;20.40;99.90
8313;DHT22;4194;43.408;24.626;2023-06-26T00:51:08;20.40;99.90
8313;DHT22;4194;43.408;24.626;2023-06-26T00:53:34;20.20;99.90
8313;DHT22;4194;43.408;24.626;2023-06-26T00:56:01;20.50;99.90
8313;DHT22;4194;43.408;24.626;2023-06-26T00:58:27;20.40;99.90
8313;DHT22;4194;43.408;24.626;2023-06-26T01:00:53;20.40;99.90
8313;DHT22;4194;43.408;24.626;2023-06-26T01:03:22;20.40;99.90
8313;DHT22;4194;43.408;24.626;2023-06-26T01:05:51;20.20;99.90
8313;DHT22;4194;43.408;24.626;2023-06-26T01:08:18;20.30;99.90
8313;DHT22;4194;43.408;24.626;2023-06-26T01:10:44;20.20;99.90
8313;DHT22;4194;43.408;24.626;2023-06-26T01:13:12;20.30;99.90
8313;DHT22;4194;43.408;24.626;2023-06-26T01:15:38;20.40;99.90
8313;DHT22;4194;43.408;24.626;2023-06-26T01:18:05;20.30;99.90
8313;DHT22;4194;43.408;24.626;2023-06-26T01:20:34;20.40;99.90
8313;DHT22;4194;43.408;24.626;2023-06-26T01:28:20;20.30;99.90
8313;DHT22;4194;43.408;24.626;2023-06-26T01:30:46;20.20;99.90
8313;DHT22;4194;43.408;24.626;2023-06-26T01:33:13;20.30;99.90
8313;DHT22;4194;43.408;24.626;2023-06-26T01:35:40;20.30;99.90
8313;DHT22;4194;43.408;24.626;2023-06-26T01:38:20;20.60;99.90
8313;DHT22;4194;43.408;24.626;2023-06-26T01:40:46;20.50;99.90
8313;DHT22;4194;43.408;24.626;2023-06-26T01:46:09;20.40;99.90
8313;DHT22;4194;43.408;24.626;2023-06-26T01:51:32;20.40;99.90
8313;DHT22;4194;43.408;24.626;2023-06-26T01:54:00;20.20;99.90
8313;DHT22;4194;43.408;24.626;2023-06-26T01:56:28;20.40;99.90
8313;DHT22;4194;43.408;24.626;2023-06-26T01:58:55;20.50;99.90
8313;DHT22;4194;43.408;24.626;2023-06-26T02:01:22;20.50;99.90
8313;DHT22;4194;43.408;24.626;2023-06-26T02:03:48;20.50;99.90
8313;DHT22;4194;43.408;24.626;2023-06-26T02:06:14;20.40;99.90
8313;DHT22;4194;43.408;24.626;2023-06-26T02:08:40;20.40;99.90
8313;DHT22;4194;43.408;24.626;2023-06-26T02:11:06;20.30;99.90
8313;DHT22;4194;43.408;24.626;2023-06-26T02:13:32;20.40;99.90
8313;DHT22;4194;43.408;24.626;2023-06-26T02:15:57;20.40;99.90
8313;DHT22;4194;43.408;24.626;2023-06-26T02:18:23;20.30;99.90
8313;DHT22;4194;43.408;24.626;2023-06-26T02:20:49;20.60;99.90
8313;DHT22;4194;43.408;24.626;2023-06-26T02:23:15;20.40;99.90
8313;DHT22;4194;43.408;24.626;2023-06-26T02:25:41;20.50;99.90
8313;DHT22;4194;43.408;24.626;2023-06-26T02:28:06;20.50;99.90
8313;DHT22;4194;43.408;24.626;2023-06-26T02:30:32;20.50;99.90
8313;DHT22;4194;43.408;24.626;2023-06-26T02:32:58;20.50;99.90
8313;DHT22;4194;43.408;24.626;2023-06-26T02:35:23;20.40;99.90
8313;DHT22;4194;43.408;24.626;2023-06-26T02:37:49;20.40;99.90
8313;DHT22;4194;43.408;24.626;2023-06-26T02:40:15;20.70;99.90
8313;DHT22;4194;43.408;24.626;2023-06-26T02:42:41;20.50;99.90
8313;DHT22;4194;43.408;24.626;2023-06-26T02:45:07;20.60;99.90
8313;DHT22;4194;43.408;24.626;2023-06-26T02:47:33;20.60;99.90
8313;DHT22;4194;43.408;24.626;2023-06-26T02:49:59;20.60;99.90
8313;DHT22;4194;43.408;24.626;2023-06-26T02:52:25;20.60;99.90
8313;DHT22;4194;43.408;24.626;2023-06-26T02:54:50;22.30;99.90
8313;DHT22;4194;43.408;24.626;2023-06-26T02:57:16;20.60;99.90
8313;DHT22;4194;43.408;24.626;2023-06-26T02:59:42;20.80;99.90
8313;DHT22;4194;43.408;24.626;2023-06-26T03:02:08;20.60;99.90
8313;DHT22;4194;43.408;24.626;2023-06-26T03:04:34;20.60;99.90
8313;DHT22;4194;43.408;24.626;2023-06-26T03:07:03;20.50;99.90
8313;DHT22;4194;43.408;24.626;2023-06-26T03:09:29;20.60;99.90
8313;DHT22;4194;43.408;24.626;2023-06-26T03:11:54;20.60;99.90
8313;DHT22;4194;43.408;24.626;2023-06-26T03:14:21;20.80;99.90
8313;DHT22;4194;43.408;24.626;2023-06-26T03:16:47;20.70;99.90
8313;DHT22;4194;43.408;24.626;2023-06-26T03:19:12;20.70;99.90
8313;DHT22;4194;43.408;24.626;2023-06-26T03:21:38;20.70;99.90
8313;DHT22;4194;43.408;24.626;2023-06-26T03:24:04;20.70;99.90
8313;DHT22;4194;43.408;24.626;2023-06-26T03:26:30;20.60;99.90
8313;DHT22;4194;43.408;24.626;2023-06-26T03:28:56;20.70;99.90
8313;DHT22;4194;43.408;24.626;2023-06-26T03:31:21;20.70;99.90
8313;DHT22;4194;43.408;24.626;2023-06-26T03:33:47;21.00;99.90
8313;DHT22;4194;43.408;24.626;2023-06-26T03:36:13;20.70;99.90
8313;DHT22;4194;43.408;24.626;2023-06-26T03:38:38;20.80;99.90
8313;DHT22;4194;43.408;24.626;2023-06-26T03:41:04;20.90;99.90
8313;DHT22;4194;43.408;24.626;2023-06-26T03:43:30;20.90;99.90
8313;DHT22;4194;43.408;24.626;2023-06-26T03:45:56;20.90;99.90
8313;DHT22;4194;43.408;24.626;2023-06-26T03:48:21;21.40;99.90
8313;DHT22;4194;43.408;24.626;2023-06-26T03:50:47;20.80;99.90
8313;DHT22;4194;43.408;24.626;2023-06-26T03:53:13;20.80;99.90
8313;DHT22;4194;43.408;24.626;2023-06-26T03:55:39;20.70;99.90
8313;DHT22;4194;43.408;24.626;2023-06-26T03:58:04;20.70;99.90
8313;DHT22;4194;43.408;24.626;2023-06-26T04:00:30;20.70;99.90
8313;DHT22;4194;43.408;24.626;2023-06-26T04:02:56;20.90;99.90
8313;DHT22;4194;43.408;24.626;2023-06-26T04:05:23;20.70;99.90
8313;DHT22;4194;43.408;24.626;2023-06-26T04:07:52;21.00;99.90
8313;DHT22;4194;43.408;24.626;2023-06-26T04:10:18;20.80;99.90
8313;DHT22;4194;43.408;24.626;2023-06-26T04:12:45;20.90;99.90
8313;DHT22;4194;43.408;24.626;2023-06-26T04:15:10;20.90;99.90
8313;DHT22;4194;43.408;24.626;2023-06-26T04:17:36;20.90;99.90
8313;DHT22;4194;43.408;24.626;2023-06-26T04:20:02;20.80;99.90
8313;DHT22;4194;43.408;24.626;2023-06-26T04:22:32;20.80;99.90
8313;DHT22;4194;43.408;24.626;2023-06-26T04:24:57;20.90;99.90
8313;DHT22;4194;43.408;24.626;2023-06-26T04:27:23;21.00;99.90
8313;DHT22;4194;43.408;24.626;2023-06-26T04:29:49;21.10;99.90
8313;DHT22;4194;43.408;24.626;2023-06-26T04:32:14;21.40;99.90
8313;DHT22;4194;43.408;24.626;2023-06-26T04:34:40;21.20;99.90
8313;DHT22;4194;43.408;24.626;2023-06-26T04:37:08;21.00;99.90
8313;DHT22;4194;43.408;24.626;2023-06-26T04:39:37;21.20;99.90
8313;DHT22;4194;43.408;24.626;2023-06-26T04:42:04;21.10;99.90
8313;DHT22;4194;43.408;24.626;2023-06-26T04:44:31;21.20;99.90
8313;DHT22;4194;43.408;24.626;2023-06-26T04:46:56;21.10;99.90
8313;DHT22;4194;43.408;24.626;2023-06-26T04:49:22;21.10;99.90
8313;DHT22;4194;43.408;24.626;2023-06-26T04:51:48;21.10;99.90
8313;DHT22;4194;43.408;24.626;2023-06-26T04:54:14;21.00;99.90
8313;DHT22;4194;43.408;24.626;2023-06-26T04:56:39;21.00;99.90
8313;DHT22;4194;43.408;24.626;2023-06-26T04:59:05;21.20;99.90
8313;DHT22;4194;43.408;24.626;2023-06-26T05:01:31;20.90;99.90
8313;DHT22;4194;43.408;24.626;2023-06-26T05:03:58;20.70;99.90
8313;DHT22;4194;43.408;24.626;2023-06-26T05:06:24;20.90;99.90
8313;DHT22;4194;43.408;24.626;2023-06-26T05:08:49;20.80;99.90
8313;DHT22;4194;43.408;24.626;2023-06-26T05:11:15;20.80;99.90
8313;DHT22;4194;43.408;24.626;2023-06-26T05:13:41;20.80;99.90
8313;DHT22;4194;43.408;24.626;2023-06-26T05:16:08;20.80;99.90
8313;DHT22;4194;43.408;24.626;2023-06-26T05:18:35;20.90;99.90
8313;DHT22;4194;43.408;24.626;2023-06-26T05:21:01;20.80;99.90
8313;DHT22;4194;43.408;24.626;2023-06-26T05:23:30;20.80;99.90
8313;DHT22;4194;43.408;24.626;2023-06-26T05:25:56;20.80;99.90
8313;DHT22;4194;43.408;24.626;2023-06-26T05:28:22;20.90;99.90
8313;DHT22;4194;43.408;24.626;2023-06-26T05:30:56;20.80;99.90
8313;DHT22;4194;43.408;24.626;2023-06-26T05:33:23;20.70;99.90
8313;DHT22;4194;43.408;24.626;2023-06-26T05:35:52;20.70;99.90
8313;DHT22;4194;43.408;24.626;2023-06-26T05:38:18;20.70;99.90
8313;DHT22;4194;43.408;24.626;2023-06-26T05:40:44;20.80;99.90
8313;DHT22;4194;43.408;24.626;2023-06-26T05:43:10;21.00;99.90
8313;DHT22;4194;43.408;24.626;2023-06-26T05:45:36;20.80;99.90
8313;DHT22;4194;43.408;24.626;2023-06-26T05:48:02;20.90;99.90
8313;DHT22;4194;43.408;24.626;2023-06-26T05:50:28;20.90;99.90
8313;DHT22;4194;43.408;24.626;2023-06-26T05:52:54;20.90;99.90
8313;DHT22;4194;43.408;24.626;2023-06-26T05:55:20;21.00;99.90
8313;DHT22;4194;43.408;24.626;2023-06-26T05:57:47;21.10;99.90
8313;DHT22;4194;43.408;24.626;2023-06-26T06:00:13;21.30;99.90
8313;DHT22;4194;43.408;24.626;2023-06-26T06:02:40;21.40;99.90
8313;DHT22;4194;43.408;24.626;2023-06-26T06:05:07;21.80;99.90
8313;DHT22;4194;43.408;24.626;2023-06-26T06:07:33;21.80;99.90
8313;DHT22;4194;43.408;24.626;2023-06-26T06:09:59;22.30;99.90
8313;DHT22;4194;43.408;24.626;2023-06-26T06:12:25;22.30;99.90
8313;DHT22;4194;43.408;24.626;2023-06-26T06:14:52;22.60;99.90
8313;DHT22;4194;43.408;24.626;2023-06-26T06:17:18;22.70;99.90
8313;DHT22;4194;43.408;24.626;2023-06-26T06:19:45;22.70;99.90
8313;DHT22;4194;43.408;24.626;2023-06-26T06:22:10;22.80;99.90
8313;DHT22;4194;43.408;24.626;2023-06-26T06:24:36;22.90;99.90
8313;DHT22;4194;43.408;24.626;2023-06-26T06:27:02;23.10;99.90
8313;DHT22;4194;43.408;24.626;2023-06-26T06:29:27;23.10;99.90
8313;DHT22;4194;43.408;24.626;2023-06-26T06:31:53;23.10;99.90
8313;DHT22;4194;43.408;24.626;2023-06-26T06:34:19;23.30;99.90
8313;DHT22;4194;43.408;24.626;2023-06-26T06:36:44;23.60;99.90
8313;DHT22;4194;43.408;24.626;2023-06-26T06:39:10;23.80;99.90
8313;DHT22;4194;43.408;24.626;2023-06-26T06:41:36;23.60;99.90
8313;DHT22;4194;43.408;24.626;2023-06-26T06:44:01;23.80;99.90
8313;DHT22;4194;43.408;24.626;2023-06-26T06:46:27;24.30;99.90
8313;DHT22;4194;43.408;24.626;2023-06-26T06:48:53;24.60;99.90
8313;DHT22;4194;43.408;24.626;2023-06-26T06:51:19;24.60;99.90
8313;DHT22;4194;43.408;24.626;2023-06-26T06:53:44;24.80;99.90
8313;DHT22;4194;43.408;24.626;2023-06-26T06:56:10;24.80;99.90
8313;DHT22;4194;43.408;24.626;2023-06-26T06:58:36;24.80;99.90
8313;DHT22;4194;43.408;24.626;2023-06-26T07:01:01;24.70;99.90
8313;DHT22;4194;43.408;24.626;2023-06-26T07:03:31;24.60;99.90
8313;DHT22;4194;43.408;24.626;2023-06-26T07:05:57;24.60;99.90
8313;DHT22;4194;43.408;24.626;2023-06-26T07:08:23;24.30;99.90
8313;DHT22;4194;43.408;24.626;2023-06-26T07:10:48;24.20;99.90
8313;DHT22;4194;43.408;24.626;2023-06-26T07:13:14;23.90;99.90
8313;DHT22;4194;43.408;24.626;2023-06-26T07:15:40;23.90;99.90
8313;DHT22;4194;43.408;24.626;2023-06-26T07:18:06;23.80;99.90
8313;DHT22;4194;43.408;24.626;2023-06-26T07:20:32;23.80;99.90
8313;DHT22;4194;43.408;24.626;2023-06-26T07:22:58;23.80;99.90
8313;DHT22;4194;43.408;24.626;2023-06-26T07:25:24;24.10;99.90
8313;DHT22;4194;43.408;24.626;2023-06-26T07:27:49;23.80;99.90
8313;DHT22;4194;43.408;24.626;2023-06-26T07:30:15;23.70;99.90
8313;DHT22;4194;43.408;24.626;2023-06-26T07:32:41;24.00;99.90
8313;DHT22;4194;43.408;24.626;2023-06-26T07:35:08;24.80;99.90
8313;DHT22;4194;43.408;24.626;2023-06-26T07:37:34;23.90;99.90
8313;DHT22;4194;43.408;24.626;2023-06-26T07:39:59;24.30;99.90
8313;DHT22;4194;43.408;24.626;2023-06-26T07:42:25;24.20;99.90
8313;DHT22;4194;43.408;24.626;2023-06-26T07:44:51;24.60;99.90
8313;DHT22;4194;43.408;24.626;2023-06-26T07:47:16;24.90;99.90
8313;DHT22;4194;43.408;24.626;2023-06-26T07:49:42;25.00;99.90
8313;DHT22;4194;43.408;24.626;2023-06-26T07:52:08;25.30;99.90
8313;DHT22;4194;43.408;24.626;2023-06-26T07:54:36;24.60;99.90
8313;DHT22;4194;43.408;24.626;2023-06-26T07:57:03;25.70;99.90
8313;DHT22;4194;43.408;24.626;2023-06-26T07:59:30;25.60;99.90
8313;DHT22;4194;43.408;24.626;2023-06-26T08:01:57;27.00;99.90
8313;DHT22;4194;43.408;24.626;2023-06-26T08:04:24;25.80;99.90
8313;DHT22;4194;43.408;24.626;2023-06-26T08:06:54;25.70;99.90
8313;DHT22;4194;43.408;24.626;2023-06-26T08:09:21;26.40;99.90
8313;DHT22;4194;43.408;24.626;2023-06-26T08:11:48;25.60;99.90
8313;DHT22;4194;43.408;24.626;2023-06-26T08:14:13;25.70;99.90
8313;DHT22;4194;43.408;24.626;2023-06-26T08:16:40;25.80;99.90
8313;DHT22;4194;43.408;24.626;2023-06-26T08:19:06;26.00;99.90
8313;DHT22;4194;43.408;24.626;2023-06-26T08:21:32;25.70;99.90
8313;DHT22;4194;43.408;24.626;2023-06-26T08:23:58;25.80;99.90
8313;DHT22;4194;43.408;24.626;2023-06-26T08:26:23;25.80;99.90
8313;DHT22;4194;43.408;24.626;2023-06-26T08:28:49;25.90;99.90
8313;DHT22;4194;43.408;24.626;2023-06-26T08:31:16;25.80;99.90
8313;DHT22;4194;43.408;24.626;2023-06-26T08:33:42;25.80;99.90
8313;DHT22;4194;43.408;24.626;2023-06-26T08:36:07;26.50;99.90
8313;DHT22;4194;43.408;24.626;2023-06-26T08:38:33;25.80;99.90
8313;DHT22;4194;43.408;24.626;2023-06-26T08:40:59;25.70;99.90
8313;DHT22;4194;43.408;24.626;2023-06-26T08:43:25;25.80;99.90
8313;DHT22;4194;43.408;24.626;2023-06-26T08:45:52;26.20;99.90
8313;DHT22;4194;43.408;24.626;2023-06-26T08:48:18;26.60;99.90
8313;DHT22;4194;43.408;24.626;2023-06-26T08:50:48;26.90;99.90
8313;DHT22;4194;43.408;24.626;2023-06-26T08:53:21;27.10;99.90
8313;DHT22;4194;43.408;24.626;2023-06-26T08:55:52;27.10;99.90
8313;DHT22;4194;43.408;24.626;2023-06-26T08:58:18;27.30;99.90
8313;DHT22;4194;43.408;24.626;2023-06-26T09:00:44;27.20;99.90
8313;DHT22;4194;43.408;24.626;2023-06-26T09:03:10;27.00;99.90
8313;DHT22;4194;43.408;24.626;2023-06-26T09:05:36;26.80;99.90
8313;DHT22;4194;43.408;24.626;2023-06-26T09:08:02;27.30;99.90
8313;DHT22;4194;43.408;24.626;2023-06-26T09:10:28;27.60;99.90
8313;DHT22;4194;43.408;24.626;2023-06-26T09:12:57;27.50;98.60
8313;DHT22;4194;43.408;24.626;2023-06-26T09:15:23;27.50;99.90
8313;DHT22;4194;43.408;24.626;2023-06-26T09:17:49;27.90;99.90
8313;DHT22;4194;43.408;24.626;2023-06-26T09:20:15;28.90;99.60
8313;DHT22;4194;43.408;24.626;2023-06-26T09:22:43;28.80;97.10
8313;DHT22;4194;43.408;24.626;2023-06-26T09:25:09;28.80;96.10
8313;DHT22;4194;43.408;24.626;2023-06-26T09:27:38;28.90;95.10
8313;DHT22;4194;43.408;24.626;2023-06-26T09:30:05;28.80;94.80
8313;DHT22;4194;43.408;24.626;2023-06-26T09:32:35;29.10;95.40
8313;DHT22;4194;43.408;24.626;2023-06-26T09:35:03;29.10;94.60
8313;DHT22;4194;43.408;24.626;2023-06-26T09:37:29;29.10;94.00
8313;DHT22;4194;43.408;24.626;2023-06-26T09:39:55;29.10;95.00
8313;DHT22;4194;43.408;24.626;2023-06-26T09:42:21;29.60;93.80
8313;DHT22;4194;43.408;24.626;2023-06-26T09:44:48;30.00;94.20
8313;DHT22;4194;43.408;24.626;2023-06-26T09:47:18;30.10;92.50
8313;DHT22;4194;43.408;24.626;2023-06-26T09:49:45;30.00;90.80
8313;DHT22;4194;43.408;24.626;2023-06-26T09:52:15;29.20;92.30
8313;DHT22;4194;43.408;24.626;2023-06-26T09:54:44;29.00;92.90
8313;DHT22;4194;43.408;24.626;2023-06-26T09:57:11;28.60;93.90
8313;DHT22;4194;43.408;24.626;2023-06-26T09:59:37;28.30;94.40
8313;DHT22;4194;43.408;24.626;2023-06-26T10:02:03;28.60;96.50
8313;DHT22;4194;43.408;24.626;2023-06-26T10:04:29;28.80;96.30
8313;DHT22;4194;43.408;24.626;2023-06-26T10:06:56;28.70;96.30
8313;DHT22;4194;43.408;24.626;2023-06-26T10:09:23;28.50;95.40
8313;DHT22;4194;43.408;24.626;2023-06-26T10:11:57;28.80;95.30
8313;DHT22;4194;43.408;24.626;2023-06-26T10:14:34;28.80;95.50
8313;DHT22;4194;43.408;24.626;2023-06-26T10:17:16;28.20;94.50
8313;DHT22;4194;43.408;24.626;2023-06-26T10:19:44;28.40;96.90
8313;DHT22;4194;43.408;24.626;2023-06-26T10:22:13;28.10;97.60
8313;DHT22;4194;43.408;24.626;2023-06-26T10:24:41;27.80;97.10
8313;DHT22;4194;43.408;24.626;2023-06-26T10:27:14;27.80;97.70
8313;DHT22;4194;43.408;24.626;2023-06-26T10:29:40;28.20;97.80
8313;DHT22;4194;43.408;24.626;2023-06-26T10:32:10;28.20;96.10
8313;DHT22;4194;43.408;24.626;2023-06-26T10:34:36;28.40;96.40
8313;DHT22;4194;43.408;24.626;2023-06-26T10:37:03;28.20;96.50
8313;DHT22;4194;43.408;24.626;2023-06-26T10:39:48;28.20;97.10
8313;DHT22;4194;43.408;24.626;2023-06-26T10:42:33;28.20;95.50
8313;DHT22;4194;43.408;24.626;2023-06-26T10:45:19;27.80;94.40
8313;DHT22;4194;43.408;24.626;2023-06-26T10:47:48;27.90;96.60
8313;DHT22;4194;43.408;24.626;2023-06-26T10:50:30;27.80;95.90
8313;DHT22;4194;43.408;24.626;2023-06-26T10:56:02;27.80;95.70
8313;DHT22;4194;43.408;24.626;2023-06-26T11:01:19;27.50;95.80
8313;DHT22;4194;43.408;24.626;2023-06-26T11:03:59;27.30;95.60
8313;DHT22;4194;43.408;24.626;2023-06-26T11:06:27;27.10;97.90
8313;DHT22;4194;43.408;24.626;2023-06-26T11:09:14;26.70;99.90
8313;DHT22;4194;43.408;24.626;2023-06-26T11:14:25;26.00;99.90
8313;DHT22;4194;43.408;24.626;2023-06-26T11:16:52;25.60;99.90
8313;DHT22;4194;43.408;24.626;2023-06-26T11:19:20;25.20;99.90
8313;DHT22;4194;43.408;24.626;2023-06-26T11:21:46;24.90;99.90
8313;DHT22;4194;43.408;24.626;2023-06-26T11:24:13;24.60;99.90
8313;DHT22;4194;43.408;24.626;2023-06-26T11:26:40;24.60;99.90
8313;DHT22;4194;43.408;24.626;2023-06-26T11:29:07;24.40;99.90
8313;DHT22;4194;43.408;24.626;2023-06-26T11:31:37;24.20;99.90
8313;DHT22;4194;43.408;24.626;2023-06-26T11:34:06;24.10;99.90
8313;DHT22;4194;43.408;24.626;2023-06-26T11:36:33;23.90;99.90
8313;DHT22;4194;43.408;24.626;2023-06-26T11:39:04;23.60;99.90
8313;DHT22;4194;43.408;24.626;2023-06-26T11:41:34;23.60;99.90
8313;DHT22;4194;43.408;24.626;2023-06-26T11:44:10;23.80;99.90
8313;DHT22;4194;43.408;24.626;2023-06-26T11:46:37;23.40;99.90
8313;DHT22;4194;43.408;24.626;2023-06-26T11:49:04;23.70;99.90
8313;DHT22;4194;43.408;24.626;2023-06-26T11:51:30;23.70;99.90
8313;DHT22;4194;43.408;24.626;2023-06-26T11:53:55;23.80;99.90
8313;DHT22;4194;43.408;24.626;2023-06-26T11:56:21;23.70;99.90
8313;DHT22;4194;43.408;24.626;2023-06-26T11:59:10;24.10;99.90
8313;DHT22;4194;43.408;24.626;2023-06-26T12:01:36;24.40;99.90
8313;DHT22;4194;43.408;24.626;2023-06-26T12:04:04;24.60;99.90
8313;DHT22;4194;43.408;24.626;2023-06-26T12:06:35;25.00;99.90
8313;DHT22;4194;43.408;24.626;2023-06-26T12:09:04;25.00;99.90
8313;DHT22;4194;43.408;24.626;2023-06-26T12:11:31;25.20;99.90
8313;DHT22;4194;43.408;24.626;2023-06-26T12:13:58;25.30;99.90
8313;DHT22;4194;43.408;24.626;2023-06-26T12:16:23;25.60;99.90
8313;DHT22;4194;43.408;24.626;2023-06-26T12:18:50;26.00;99.90
8313;DHT22;4194;43.408;24.626;2023-06-26T12:21:46;26.00;99.90
8313;DHT22;4194;43.408;24.626;2023-06-26T12:24:17;26.20;99.90
8313;DHT22;4194;43.408;24.626;2023-06-26T12:27:01;26.50;99.90
8313;DHT22;4194;43.408;24.626;2023-06-26T12:29:33;26.60;99.90
8313;DHT22;4194;43.408;24.626;2023-06-26T12:31:59;26.60;99.90
8313;DHT22;4194;43.408;24.626;2023-06-26T12:34:28;26.80;99.90
8313;DHT22;4194;43.408;24.626;2023-06-26T12:37:00;26.50;99.90
8313;DHT22;4194;43.408;24.626;2023-06-26T12:39:27;26.50;99.90
8313;DHT22;4194;43.408;24.626;2023-06-26T12:41:54;26.00;99.90
8313;DHT22;4194;43.408;24.626;2023-06-26T12:44:26;26.20;99.90
8313;DHT22;4194;43.408;24.626;2023-06-26T12:46:58;26.00;99.90
8313;DHT22;4194;43.408;24.626;2023-06-26T12:49:35;26.00;99.90
8313;DHT22;4194;43.408;24.626;2023-06-26T12:52:02;26.00;99.90
8313;DHT22;4194;43.408;24.626;2023-06-26T12:54:28;26.10;99.90
8313;DHT22;4194;43.408;24.626;2023-06-26T12:56:54;26.10;99.90
8313;DHT22;4194;43.408;24.626;2023-06-26T12:59:21;26.40;99.90
8313;DHT22;4194;43.408;24.626;2023-06-26T13:01:47;26.30;99.90
8313;DHT22;4194;43.408;24.626;2023-06-26T13:04:13;26.30;99.90
8313;DHT22;4194;43.408;24.626;2023-06-26T13:06:39;26.50;99.90
8313;DHT22;4194;43.408;24.626;2023-06-26T13:09:04;26.30;99.90
8313;DHT22;4194;43.408;24.626;2023-06-26T13:11:31;26.60;99.90
8313;DHT22;4194;43.408;24.626;2023-06-26T13:13:58;26.60;99.90
8313;DHT22;4194;43.408;24.626;2023-06-26T13:16:24;26.50;99.90
8313;DHT22;4194;43.408;24.626;2023-06-26T13:18:49;26.60;99.90
8313;DHT22;4194;43.408;24.626;2023-06-26T13:21:16;26.90;99.90
8313;DHT22;4194;43.408;24.626;2023-06-26T13:23:43;27.30;99.90
8313;DHT22;4194;43.408;24.626;2023-06-26T13:26:09;27.70;98.40
8313;DHT22;4194;43.408;24.626;2023-06-26T13:28:36;28.10;99.50
8313;DHT22;4194;43.408;24.626;2023-06-26T13:31:02;29.30;95.90
8313;DHT22;4194;43.408;24.626;2023-06-26T13:33:29;29.40;93.70
8313;DHT22;4194;43.408;24.626;2023-06-26T13:35:55;29.40;94.20
8313;DHT22;4194;43.408;24.626;2023-06-26T13:38:21;28.80;94.00
8313;DHT22;4194;43.408;24.626;2023-06-26T13:40:59;28.60;94.50
8313;DHT22;4194;43.408;24.626;2023-06-26T13:43:28;28.30;95.60
8313;DHT22;4194;43.408;24.626;2023-06-26T13:45:55;28.20;96.50
8313;DHT22;4194;43.408;24.626;2023-06-26T13:48:21;28.00;97.60
8313;DHT22;4194;43.408;24.626;2023-06-26T13:50:47;28.00;97.50
8313;DHT22;4194;43.408;24.626;2023-06-26T13:53:13;28.00;98.50
8313;DHT22;4194;43.408;24.626;2023-06-26T13:55:40;28.10;99.90
8313;DHT22;4194;43.408;24.626;2023-06-26T13:58:06;28.00;99.40
8313;DHT22;4194;43.408;24.626;2023-06-26T14:00:33;27.90;99.90
8313;DHT22;4194;43.408;24.626;2023-06-26T14:03:03;28.00;99.90
8313;DHT22;4194;43.408;24.626;2023-06-26T14:05:30;28.00;99.90
8313;DHT22;4194;43.408;24.626;2023-06-26T14:07:55;28.00;99.90
8313;DHT22;4194;43.408;24.626;2023-06-26T14:10:22;28.30;99.90
8313;DHT22;4194;43.408;24.626;2023-06-26T14:12:48;29.10;97.80
8313;DHT22;4194;43.408;24.626;2023-06-26T14:15:14;29.40;96.00
8313;DHT22;4194;43.408;24.626;2023-06-26T14:17:41;29.70;94.50
8313;DHT22;4194;43.408;24.626;2023-06-26T14:20:10;31.20;93.00
8313;DHT22;4194;43.408;24.626;2023-06-26T14:22:41;34.00;87.40
8313;DHT22;4194;43.408;24.626;2023-06-26T14:25:09;36.60;72.10
8313;DHT22;4194;43.408;24.626;2023-06-26T14:27:36;38.00;67.00
8313;DHT22;4194;43.408;24.626;2023-06-26T14:30:03;40.00;61.60
8313;DHT22;4194;43.408;24.626;2023-06-26T14:32:29;40.40;59.20
8313;DHT22;4194;43.408;24.626;2023-06-26T14:34:55;41.10;54.90
8313;DHT22;4194;43.408;24.626;2023-06-26T14:37:21;39.60;55.30
8313;DHT22;4194;43.408;24.626;2023-06-26T14:39:47;40.20;54.80
8313;DHT22;4194;43.408;24.626;2023-06-26T14:42:12;41.00;53.70
8313;DHT22;4194;43.408;24.626;2023-06-26T14:44:38;41.80;53.40
8313;DHT22;4194;43.408;24.626;2023-06-26T14:47:04;43.40;50.20
8313;DHT22;4194;43.408;24.626;2023-06-26T14:49:30;43.40;49.10
8313;DHT22;4194;43.408;24.626;2023-06-26T14:51:56;43.50;48.90
8313;DHT22;4194;43.408;24.626;2023-06-26T14:54:22;44.20;49.20
8313;DHT22;4194;43.408;24.626;2023-06-26T14:56:48;44.70;47.40
8313;DHT22;4194;43.408;24.626;2023-06-26T14:59:13;44.80;46.50
8313;DHT22;4194;43.408;24.626;2023-06-26T15:01:39;44.20;46.00
8313;DHT22;4194;43.408;24.626;2023-06-26T15:04:06;44.50;45.80
8313;DHT22;4194;43.408;24.626;2023-06-26T15:06:32;44.80;46.70
8313;DHT22;4194;43.408;24.626;2023-06-26T15:08:58;44.60;46.60
8313;DHT22;4194;43.408;24.626;2023-06-26T15:11:24;44.10;45.70
8313;DHT22;4194;43.408;24.626;2023-06-26T15:13:50;44.50;44.80
8313;DHT22;4194;43.408;24.626;2023-06-26T15:16:16;44.30;44.20
8313;DHT22;4194;43.408;24.626;2023-06-26T15:18:41;44.60;45.90
8313;DHT22;4194;43.408;24.626;2023-06-26T15:21:07;44.60;45.60
8313;DHT22;4194;43.408;24.626;2023-06-26T15:23:34;44.70;46.30
8313;DHT22;4194;43.408;24.626;2023-06-26T15:26:00;44.30;45.70
8313;DHT22;4194;43.408;24.626;2023-06-26T15:28:25;44.40;46.60
8313;DHT22;4194;43.408;24.626;2023-06-26T15:30:51;44.60;46.50
8313;DHT22;4194;43.408;24.626;2023-06-26T15:33:17;44.50;46.10
8313;DHT22;4194;43.408;24.626;2023-06-26T15:35:43;44.60;45.90
8313;DHT22;4194;43.408;24.626;2023-06-26T15:38:13;44.50;45.70
8313;DHT22;4194;43.408;24.626;2023-06-26T15:40:38;44.60;46.40
8313;DHT22;4194;43.408;24.626;2023-06-26T15:43:04;44.60;47.10
8313;DHT22;4194;43.408;24.626;2023-06-26T15:45:30;43.90;46.70
8313;DHT22;4194;43.408;24.626;2023-06-26T15:47:56;42.70;48.30
8313;DHT22;4194;43.408;24.626;2023-06-26T15:50:22;42.10;50.50
8313;DHT22;4194;43.408;24.626;2023-06-26T15:52:48;41.80;51.20
8313;DHT22;4194;43.408;24.626;2023-06-26T15:55:15;42.50;51.00
8313;DHT22;4194;43.408;24.626;2023-06-26T15:57:41;42.60;50.50
8313;DHT22;4194;43.408;24.626;2023-06-26T16:00:07;41.50;50.70
8313;DHT22;4194;43.408;24.626;2023-06-26T16:02:33;41.20;51.90
8313;DHT22;4194;43.408;24.626;2023-06-26T16:05:00;40.40;52.60